Terminal Aerodrome Forecast
Issued by NWS Newport/Morehead City, NC

Home | Current Version | Previous Version | Text Only | Print | Product List | Glossary On
Versions: 1 2 3 4 5 6 7 8 9 10 11 12 13 14 15
292
FTUS42 KMHX 200525
TAFEWN
TAF
KEWN 200525Z 2006/2106 21008KT P6SM SCT022 OVC250
      TEMPO 2008/2012 BKN022
     FM201200 23008KT P6SM VCSH OVC022
     FM201700 24007KT 3SM +SHRA VCTS SCT025CB OVC050
     FM210100 21005KT 6SM -SHRA OVC020=

USA.gov is the U.S. government's official web portal to all federal, state and local government web resources and services.